Time;durP1;ratioP1;P1;durP2;ratioP2;P2;SDS_P1;SDS_P2;PMS_P1;PMS_P2;Temp;Humidity;BMP_temperature;BMP_pressure;BME280_temperature;BME280_humidity;BME280_pressure;Samples;Min_cycle;Max_cycle;Signal;HPM_P1;HPM_P2
2022/02/25 00:01:42;;;;;;;;;;;18.80;59.40;;;;;;5032543;28;1194;-68
2022/02/25 00:04:08;;;;;;;;;;;18.80;59.50;;;;;;5032656;28;1346;-68
2022/02/25 00:06:33;;;;;;;;;;;18.80;59.50;;;;;;5032420;28;1263;-68
2022/02/25 00:08:58;;;;;;;;;;;18.80;59.50;;;;;;5032344;28;1292;-68
2022/02/25 00:11:24;;;;;;;;;;;18.80;59.50;;;;;;5032614;28;1366;-68
2022/02/25 00:13:49;;;;;;;;;;;18.80;59.50;;;;;;5032829;28;1181;-68
2022/02/25 00:16:15;;;;;;;;;;;18.80;59.50;;;;;;5032459;28;1905;-68
2022/02/25 00:18:40;;;;;;;;;;;18.80;59.60;;;;;;5032112;28;1302;-67
2022/02/25 00:21:06;;;;;;;;;;;18.80;59.60;;;;;;5032204;28;1320;-67
2022/02/25 00:23:31;;;;;;;;;;;18.80;59.60;;;;;;5032616;28;1302;-67
2022/02/25 00:25:56;;;;;;;;;;;18.80;59.60;;;;;;5032415;28;1127;-67
2022/02/25 00:28:22;;;;;;;;;;;18.70;59.60;;;;;;5033044;28;1272;-67
2022/02/25 00:30:47;;;;;;;;;;;18.70;59.60;;;;;;5048982;28;1257;-67
2022/02/25 00:33:14;;;;;;;;;;;18.70;59.60;;;;;;5032372;28;1300;-67
2022/02/25 00:35:40;;;;;;;;;;;18.70;59.60;;;;;;5044681;28;1965;-67
2022/02/25 00:38:05;;;;;;;;;;;18.70;59.70;;;;;;5032004;28;1621;-67
2022/02/25 00:40:30;;;;;;;;;;;18.70;59.70;;;;;;5032198;28;1263;-67
2022/02/25 00:42:56;;;;;;;;;;;18.70;59.70;;;;;;5032208;28;1282;-67
2022/02/25 00:45:21;;;;;;;;;;;18.70;59.70;;;;;;5044454;28;1265;-67
2022/02/25 00:47:47;;;;;;;;;;;18.70;59.70;;;;;;5034081;28;1268;-66
2022/02/25 00:50:12;;;;;;;;;;;18.70;59.70;;;;;;5035341;28;1324;-66
2022/02/25 00:52:38;;;;;;;;;;;18.70;59.80;;;;;;5035907;28;1313;-67
2022/02/25 00:55:04;;;;;;;;;;;18.70;59.80;;;;;;5035684;28;1957;-67
2022/02/25 00:57:29;;;;;;;;;;;18.70;59.80;;;;;;5035899;28;1311;-67
2022/02/25 00:59:55;;;;;;;;;;;18.70;59.80;;;;;;5035268;28;1362;-67
2022/02/25 01:02:20;;;;;;;;;;;18.60;59.80;;;;;;5035471;28;1254;-67
2022/02/25 01:04:46;;;;;;;;;;;18.60;59.80;;;;;;5035413;28;1337;-67
2022/02/25 01:07:12;;;;;;;;;;;18.60;59.80;;;;;;5035209;28;1339;-67
2022/02/25 01:09:37;;;;;;;;;;;18.60;59.80;;;;;;5035509;28;1329;-68
2022/02/25 01:12:04;;;;;;;;;;;18.60;59.80;;;;;;5042471;28;1367;-68
2022/02/25 01:14:29;;;;;;;;;;;18.70;59.80;;;;;;5040137;28;1279;-67
2022/02/25 01:16:55;;;;;;;;;;;18.60;59.80;;;;;;5035247;28;1886;-67
2022/02/25 01:19:20;;;;;;;;;;;18.60;59.80;;;;;;5034766;28;1289;-67
2022/02/25 01:21:46;;;;;;;;;;;18.60;59.80;;;;;;5035060;28;1256;-67
2022/02/25 01:24:11;;;;;;;;;;;18.60;59.90;;;;;;5035068;28;1332;-67
2022/02/25 01:26:37;;;;;;;;;;;18.60;59.90;;;;;;5035343;28;1393;-67
2022/02/25 01:29:02;;;;;;;;;;;18.60;59.90;;;;;;5040937;28;1245;-67
2022/02/25 01:31:28;;;;;;;;;;;18.60;60.60;;;;;;5045289;28;1353;-67
2022/02/25 01:33:53;;;;;;;;;;;18.60;59.90;;;;;;5035419;28;1230;-67
2022/02/25 01:36:19;;;;;;;;;;;18.60;59.90;;;;;;5046760;28;1969;-67
2022/02/25 01:38:44;;;;;;;;;;;18.60;59.90;;;;;;5035191;28;1394;-67
2022/02/25 01:41:10;;;;;;;;;;;18.60;59.90;;;;;;5033735;28;1330;-67
2022/02/25 01:43:35;;;;;;;;;;;18.60;59.90;;;;;;5046704;28;1402;-67
2022/02/25 01:46:00;;;;;;;;;;;18.60;59.90;;;;;;5034860;28;1292;-67
2022/02/25 01:48:26;;;;;;;;;;;18.60;60.00;;;;;;5034452;28;1368;-67
2022/02/25 01:50:51;;;;;;;;;;;18.60;60.00;;;;;;5034364;28;1325;-67
2022/02/25 01:53:20;;;;;;;;;;;18.60;60.00;;;;;;5034466;28;1279;-67
2022/02/25 01:55:47;;;;;;;;;;;18.60;60.00;;;;;;5033552;28;1902;-66
2022/02/25 01:58:12;;;;;;;;;;;18.60;60.00;;;;;;5034115;28;1324;-67
2022/02/25 02:00:38;;;;;;;;;;;18.60;60.10;;;;;;5033201;28;1307;-67
2022/02/25 02:03:03;;;;;;;;;;;18.50;60.00;;;;;;5032974;28;1279;-67
2022/02/25 02:05:29;;;;;;;;;;;18.50;60.00;;;;;;5034406;28;1339;-67
2022/02/25 02:07:54;;;;;;;;;;;18.50;60.00;;;;;;5034133;28;1364;-67
2022/02/25 02:10:19;;;;;;;;;;;18.50;60.00;;;;;;5034273;28;1121;-68
2022/02/25 02:12:45;;;;;;;;;;;18.50;60.00;;;;;;5034141;28;1337;-68
2022/02/25 02:15:10;;;;;;;;;;;18.50;60.00;;;;;;5033103;28;1906;-68
2022/02/25 02:17:36;;;;;;;;;;;18.50;60.10;;;;;;5034488;28;1287;-68
2022/02/25 02:20:02;;;;;;;;;;;18.50;60.10;;;;;;5032306;28;1370;-68
2022/02/25 02:22:27;;;;;;;;;;;18.50;60.10;;;;;;5033972;28;1340;-68
2022/02/25 02:24:52;;;;;;;;;;;18.50;60.10;;;;;;5034052;28;1364;-69
2022/02/25 02:27:18;;;;;;;;;;;18.50;60.10;;;;;;5033584;28;1291;-68
2022/02/25 02:29:43;;;;;;;;;;;18.50;60.10;;;;;;5045032;28;1123;-68
2022/02/25 02:32:09;;;;;;;;;;;18.50;60.10;;;;;;5038763;28;1325;-68
2022/02/25 02:34:34;;;;;;;;;;;18.50;60.20;;;;;;5033123;28;1284;-68
2022/02/25 02:37:00;;;;;;;;;;;18.50;60.10;;;;;;5040097;28;1902;-68
2022/02/25 02:39:25;;;;;;;;;;;18.50;60.20;;;;;;5033422;28;1336;-68
2022/02/25 02:41:50;;;;;;;;;;;18.50;60.10;;;;;;5033755;28;1352;-68
2022/02/25 02:44:16;;;;;;;;;;;18.50;60.00;;;;;;5033966;28;1390;-68
2022/02/25 02:46:42;;;;;;;;;;;18.50;60.00;;;;;;5033652;28;1366;-68
2022/02/25 02:49:07;;;;;;;;;;;18.60;60.70;;;;;;5033077;28;1304;-68
2022/02/25 02:51:32;;;;;;;;;;;18.60;59.90;;;;;;5033591;28;1329;-67
2022/02/25 02:53:58;;;;;;;;;;;18.60;59.80;;;;;;5032298;28;1318;-67
2022/02/25 02:56:23;;;;;;;;;;;18.70;59.80;;;;;;5032234;28;1957;-67
2022/02/25 02:58:55;;;;;;;;;;;18.70;59.70;;;;;;5032954;28;1288;-67
2022/02/25 03:01:21;;;;;;;;;;;18.70;59.60;;;;;;5040867;28;1106;-67
2022/02/25 03:03:46;;;;;;;;;;;18.80;59.50;;;;;;5052949;28;1273;-67
2022/02/25 03:06:12;;;;;;;;;;;18.80;59.40;;;;;;5053171;28;1118;-67
2022/02/25 03:08:37;;;;;;;;;;;18.80;59.40;;;;;;5052834;28;1278;-67
2022/02/25 03:11:02;;;;;;;;;;;18.80;59.30;;;;;;5052543;28;1297;-67
2022/02/25 03:13:28;;;;;;;;;;;18.80;59.20;;;;;;5053006;28;1336;-67
2022/02/25 03:15:53;;;;;;;;;;;18.90;59.20;;;;;;5053019;28;1957;-67
2022/02/25 03:18:19;;;;;;;;;;;18.90;59.10;;;;;;5051704;28;1350;-67
2022/02/25 03:20:44;;;;;;;;;;;18.90;59.10;;;;;;5052696;28;1295;-68
2022/02/25 03:23:10;;;;;;;;;;;18.90;59.00;;;;;;5053190;28;1284;-67
2022/02/25 03:25:35;;;;;;;;;;;18.90;59.00;;;;;;5046347;28;1279;-67
2022/02/25 03:28:01;;;;;;;;;;;18.90;58.90;;;;;;5055486;22;3811;-71
2022/02/25 03:30:26;;;;;;;;;;;18.90;58.90;;;;;;5031737;28;1379;-68
2022/02/25 03:32:52;;;;;;;;;;;19.00;58.90;;;;;;5031617;28;1499;-69
2022/02/25 03:35:17;;;;;;;;;;;19.00;58.80;;;;;;5032853;28;1910;-67
2022/02/25 03:37:43;;;;;;;;;;;19.00;58.80;;;;;;5030936;28;1505;-67
2022/02/25 03:40:09;;;;;;;;;;;19.00;58.80;;;;;;5031551;28;1393;-68
2022/02/25 03:42:35;;;;;;;;;;;19.00;58.80;;;;;;5031614;28;1699;-67
2022/02/25 03:45:00;;;;;;;;;;;19.00;58.70;;;;;;5031858;28;1671;-68
2022/02/25 03:47:26;;;;;;;;;;;19.00;58.70;;;;;;5013474;28;1305;-69
2022/02/25 03:49:51;;;;;;;;;;;19.00;58.70;;;;;;5026059;28;1890;-69
2022/02/25 03:52:18;;;;;;;;;;;19.00;58.60;;;;;;5033615;28;1749;-69
2022/02/25 03:54:44;;;;;;;;;;;19.10;58.70;;;;;;5031778;28;1902;-70
2022/02/25 03:57:09;;;;;;;;;;;19.10;58.70;;;;;;5033035;28;1401;-70
2022/02/25 03:59:35;;;;;;;;;;;19.10;58.70;;;;;;5032931;28;1294;-69
2022/02/25 04:02:00;;;;;;;;;;;19.10;58.70;;;;;;5032859;28;1303;-70
2022/02/25 04:04:26;;;;;;;;;;;19.10;58.70;;;;;;5033109;28;1332;-69
2022/02/25 04:06:51;;;;;;;;;;;19.10;58.60;;;;;;5032018;28;1140;-70
2022/02/25 04:09:18;;;;;;;;;;;19.10;58.60;;;;;;5032937;28;1299;-70
2022/02/25 04:11:52;;;;;;;;;;;19.10;58.60;;;;;;5033080;28;1323;-69
2022/02/25 04:14:21;;;;;;;;;;;19.10;58.60;;;;;;5031465;28;1258;-68
2022/02/25 04:16:47;;;;;;;;;;;19.10;58.60;;;;;;5032869;28;1894;-69
2022/02/25 04:19:12;;;;;;;;;;;19.10;58.50;;;;;;5032687;28;1639;-69
2022/02/25 04:21:38;;;;;;;;;;;19.10;58.50;;;;;;5032000;28;1205;-69
2022/02/25 04:24:03;;;;;;;;;;;19.10;58.50;;;;;;5035497;28;1318;-69
2022/02/25 04:26:29;;;;;;;;;;;19.10;58.50;;;;;;5035218;28;1537;-69
2022/02/25 04:28:54;;;;;;;;;;;19.10;58.50;;;;;;5036679;28;1350;-69
2022/02/25 04:31:20;;;;;;;;;;;19.10;58.50;;;;;;5052111;28;1799;-65
2022/02/25 04:33:45;;;;;;;;;;;19.10;58.50;;;;;;5026883;28;1889;-67
2022/02/25 04:36:10;;;;;;;;;;;19.10;58.50;;;;;;5037454;28;1949;-68
2022/02/25 04:38:36;;;;;;;;;;;19.10;58.50;;;;;;5037921;28;1232;-69
2022/02/25 04:41:02;;;;;;;;;;;19.10;58.50;;;;;;5037506;28;915;-67
2022/02/25 04:43:36;;;;;;;;;;;19.10;58.50;;;;;;5032310;28;2225;-70
2022/02/25 04:46:01;;;;;;;;;;;19.10;58.50;;;;;;5036077;28;1050;-67
2022/02/25 04:48:27;;;;;;;;;;;19.10;58.50;;;;;;5036001;28;1394;-67
2022/02/25 04:50:53;;;;;;;;;;;19.10;58.50;;;;;;5036808;28;958;-69
2022/02/25 04:53:18;;;;;;;;;;;19.10;58.50;;;;;;5037502;28;800;-67
2022/02/25 04:55:46;;;;;;;;;;;19.10;58.50;;;;;;5035933;28;1945;-70
2022/02/25 04:58:20;;;;;;;;;;;19.10;58.50;;;;;;5035516;28;1301;-68
2022/02/25 05:00:46;;;;;;;;;;;19.10;58.50;;;;;;5036977;28;1290;-69
2022/02/25 05:03:11;;;;;;;;;;;19.10;58.40;;;;;;5037240;28;894;-68
2022/02/25 05:05:37;;;;;;;;;;;19.10;58.40;;;;;;5033449;28;2067;-69
2022/02/25 05:08:02;;;;;;;;;;;19.10;58.40;;;;;;5037140;28;1295;-69
2022/02/25 05:10:28;;;;;;;;;;;19.10;58.40;;;;;;5035212;28;1558;-69
2022/02/25 05:12:53;;;;;;;;;;;19.10;58.40;;;;;;5037618;28;874;-69
2022/02/25 05:20:47;;;;;;;;;;;19.10;58.40;;;;;;5035054;28;2294;-70
2022/02/25 05:23:12;;;;;;;;;;;19.10;58.40;;;;;;5034302;28;1138;-69
2022/02/25 05:25:39;;;;;;;;;;;19.10;58.40;;;;;;5034554;28;1088;-70
2022/02/25 05:28:05;;;;;;;;;;;19.10;58.40;;;;;;5029718;28;1365;-69
2022/02/25 05:30:30;;;;;;;;;;;19.10;58.40;;;;;;5048938;28;1162;-68
2022/02/25 05:32:56;;;;;;;;;;;19.10;58.40;;;;;;5051788;28;798;-68
2022/02/25 05:35:21;;;;;;;;;;;19.10;58.40;;;;;;5033560;28;1971;-69
2022/02/25 05:37:47;;;;;;;;;;;19.10;58.40;;;;;;5067054;28;1221;-68
2022/02/25 05:40:13;;;;;;;;;;;19.10;58.40;;;;;;5034708;28;815;-69
2022/02/25 05:42:39;;;;;;;;;;;19.10;58.40;;;;;;5067092;28;1075;-68
2022/02/25 05:45:05;;;;;;;;;;;19.10;58.40;;;;;;5067285;28;792;-68
2022/02/25 05:47:30;;;;;;;;;;;19.10;58.40;;;;;;5067076;28;1288;-68
2022/02/25 05:49:56;;;;;;;;;;;19.10;58.40;;;;;;5066812;28;702;-69
2022/02/25 05:52:21;;;;;;;;;;;19.10;58.40;;;;;;5034716;28;834;-68
2022/02/25 05:54:46;;;;;;;;;;;19.10;58.30;;;;;;5034797;28;1943;-69
2022/02/25 05:57:14;;;;;;;;;;;19.10;58.30;;;;;;5066791;28;791;-68
2022/02/25 05:59:39;;;;;;;;;;;19.10;58.40;;;;;;5034356;28;1169;-68
2022/02/25 06:02:05;;;;;;;;;;;19.10;58.40;;;;;;5066702;28;1076;-68
2022/02/25 06:04:30;;;;;;;;;;;19.10;58.30;;;;;;5034635;28;938;-69
2022/02/25 06:06:56;;;;;;;;;;;19.10;58.30;;;;;;5034483;28;938;-68
2022/02/25 06:09:21;;;;;;;;;;;19.10;58.30;;;;;;5028146;28;1681;-69
2022/02/25 06:11:47;;;;;;;;;;;19.10;58.30;;;;;;5034165;28;823;-67
2022/02/25 06:14:12;;;;;;;;;;;19.20;58.40;;;;;;5033847;28;783;-66
2022/02/25 06:16:37;;;;;;;;;;;19.10;58.30;;;;;;5033185;28;1914;-67
2022/02/25 06:19:03;;;;;;;;;;;19.10;58.30;;;;;;5032259;28;1217;-66
2022/02/25 06:21:28;;;;;;;;;;;19.10;58.30;;;;;;5033856;28;770;-67
2022/02/25 06:23:54;;;;;;;;;;;19.10;58.30;;;;;;5034162;28;724;-67
2022/02/25 06:26:19;;;;;;;;;;;19.10;58.30;;;;;;5034362;28;776;-67
2022/02/25 06:28:45;;;;;;;;;;;19.10;58.30;;;;;;5029292;28;1272;-68
2022/02/25 06:31:10;;;;;;;;;;;19.20;58.40;;;;;;5052503;28;1182;-69
2022/02/25 06:33:35;;;;;;;;;;;19.10;58.30;;;;;;5053593;28;946;-70
2022/02/25 06:36:01;;;;;;;;;;;19.10;58.30;;;;;;5034901;28;1973;-67
2022/02/25 06:38:26;;;;;;;;;;;19.10;58.30;;;;;;5028993;28;1834;-68
2022/02/25 06:40:52;;;;;;;;;;;19.10;58.30;;;;;;5033475;28;883;-69
2022/02/25 06:43:17;;;;;;;;;;;19.10;58.30;;;;;;5033335;28;1180;-69
2022/02/25 06:45:43;;;;;;;;;;;19.10;58.30;;;;;;5033047;28;842;-69
2022/02/25 06:48:08;;;;;;;;;;;19.10;58.30;;;;;;5033326;28;1212;-69
2022/02/25 06:50:34;;;;;;;;;;;19.10;58.30;;;;;;5031691;28;874;-69
2022/02/25 06:52:59;;;;;;;;;;;19.10;58.30;;;;;;5032925;28;811;-68
2022/02/25 06:55:25;;;;;;;;;;;19.10;58.30;;;;;;5033205;28;1953;-69
2022/02/25 06:57:50;;;;;;;;;;;19.10;58.30;;;;;;5033109;28;1291;-71
2022/02/25 07:00:21;;;;;;;;;;;19.10;58.30;;;;;;5026975;28;1987;-70
2022/02/25 07:02:50;;;;;;;;;;;19.10;58.30;;;;;;5032946;28;1108;-71
2022/02/25 07:05:15;;;;;;;;;;;19.10;58.30;;;;;;5050863;28;1192;-70
2022/02/25 07:07:41;;;;;;;;;;;19.10;58.30;;;;;;5032701;28;1219;-69
2022/02/25 07:10:06;;;;;;;;;;;19.20;58.40;;;;;;5032781;28;779;-68
2022/02/25 07:12:32;;;;;;;;;;;19.20;58.30;;;;;;5033146;28;811;-68
2022/02/25 07:14:57;;;;;;;;;;;19.10;58.30;;;;;;5031703;28;1949;-69
2022/02/25 07:17:23;;;;;;;;;;;19.10;58.30;;;;;;5033003;28;628;-69
2022/02/25 07:19:48;;;;;;;;;;;19.10;58.30;;;;;;5032469;28;1263;-67
2022/02/25 07:22:14;;;;;;;;;;;19.20;58.40;;;;;;5033138;28;771;-68
2022/02/25 07:24:40;;;;;;;;;;;19.10;58.90;;;;;;5033344;28;986;-68
2022/02/25 07:27:07;;;;;;;;;;;19.10;58.30;;;;;;5032761;28;859;-67
2022/02/25 07:29:32;;;;;;;;;;;19.10;58.30;;;;;;5038094;28;1204;-67
2022/02/25 07:31:58;;;;;;;;;;;19.10;58.30;;;;;;5052809;28;1044;-68
2022/02/25 07:34:23;;;;;;;;;;;19.10;58.30;;;;;;5047461;28;1133;-68
2022/02/25 07:36:48;;;;;;;;;;;19.10;58.30;;;;;;5032855;28;1971;-67
2022/02/25 07:39:14;;;;;;;;;;;19.10;58.30;;;;;;5032403;28;1314;-68
2022/02/25 07:41:39;;;;;;;;;;;19.10;58.30;;;;;;5031199;28;982;-66
2022/02/25 07:44:05;;;;;;;;;;;19.10;58.30;;;;;;5032569;28;882;-66
2022/02/25 07:46:30;;;;;;;;;;;19.10;58.30;;;;;;5032630;28;1279;-70
2022/02/25 07:48:55;;;;;;;;;;;19.10;58.30;;;;;;5030925;28;1214;-68
2022/02/25 07:51:21;;;;;;;;;;;19.10;58.30;;;;;;5032392;28;1005;-68
2022/02/25 07:53:48;;;;;;;;;;;19.10;58.30;;;;;;5032421;28;843;-68
2022/02/25 07:56:14;;;;;;;;;;;19.20;58.30;;;;;;5033192;28;1894;-68
2022/02/25 07:58:39;;;;;;;;;;;19.20;58.20;;;;;;5036271;28;1202;-68
2022/02/25 08:01:05;;;;;;;;;;;19.30;58.10;;;;;;5036410;28;918;-69
2022/02/25 08:03:30;;;;;;;;;;;19.40;58.00;;;;;;5035179;28;880;-68
2022/02/25 08:05:56;;;;;;;;;;;19.50;57.90;;;;;;5034277;28;2216;-68
2022/02/25 08:08:21;;;;;;;;;;;19.60;57.70;;;;;;5036569;28;1279;-68
2022/02/25 08:10:47;;;;;;;;;;;19.70;57.50;;;;;;5035063;28;1021;-67
2022/02/25 08:13:12;;;;;;;;;;;19.90;57.30;;;;;;5036434;28;879;-68
2022/02/25 08:15:38;;;;;;;;;;;19.90;57.00;;;;;;5035003;28;1886;-68
2022/02/25 08:18:04;;;;;;;;;;;20.10;56.80;;;;;;5034939;28;1166;-67
2022/02/25 08:20:29;;;;;;;;;;;20.20;56.50;;;;;;5036085;28;926;-67
2022/02/25 08:23:00;;;;;;;;;;;20.20;56.30;;;;;;5035111;28;787;-68
2022/02/25 08:25:25;;;;;;;;;;;20.30;56.10;;;;;;5036192;28;816;-68
2022/02/25 08:27:51;;;;;;;;;;;20.40;55.90;;;;;;5035971;28;1216;-67
2022/02/25 08:30:16;;;;;;;;;;;20.50;55.80;;;;;;5047704;28;1166;-68
2022/02/25 08:32:42;;;;;;;;;;;20.50;55.60;;;;;;5055794;28;766;-67
2022/02/25 08:35:09;;;;;;;;;;;20.60;55.50;;;;;;5044485;28;1914;-67
2022/02/25 08:37:35;;;;;;;;;;;20.60;55.30;;;;;;5034721;28;1242;-69
2022/02/25 08:40:00;;;;;;;;;;;20.70;55.30;;;;;;5034713;28;811;-67
2022/02/25 08:42:25;;;;;;;;;;;20.70;55.20;;;;;;5035778;28;820;-68
2022/02/25 08:44:51;;;;;;;;;;;20.70;55.20;;;;;;5035704;28;780;-68
2022/02/25 08:47:16;;;;;;;;;;;20.70;55.20;;;;;;5035831;28;930;-68
2022/02/25 08:49:42;;;;;;;;;;;20.70;55.20;;;;;;5028914;28;2474;-68
2022/02/25 08:52:09;;;;;;;;;;;20.80;55.20;;;;;;5025992;28;1252;-68
2022/02/25 08:54:35;;;;;;;;;;;20.80;55.30;;;;;;5035338;28;1209;-67
2022/02/25 08:57:01;;;;;;;;;;;20.80;55.30;;;;;;5035461;28;1965;-67
2022/02/25 08:59:26;;;;;;;;;;;20.80;55.20;;;;;;5035155;28;1183;-67
2022/02/25 09:01:51;;;;;;;;;;;20.80;55.20;;;;;;5035281;28;970;-68
2022/02/25 09:04:17;;;;;;;;;;;20.80;55.20;;;;;;5035436;28;922;-68
2022/02/25 09:06:42;;;;;;;;;;;20.80;55.20;;;;;;5035371;28;890;-67
2022/02/25 09:09:09;;;;;;;;;;;20.80;55.20;;;;;;5034341;28;1386;-67
2022/02/25 09:11:35;;;;;;;;;;;20.70;55.20;;;;;;5035526;28;918;-67
2022/02/25 09:14:00;;;;;;;;;;;20.70;55.20;;;;;;5035026;28;799;-67
2022/02/25 09:16:26;;;;;;;;;;;20.70;55.20;;;;;;5033800;28;1966;-69
2022/02/25 09:18:51;;;;;;;;;;;20.70;55.30;;;;;;5033694;28;1323;-68
2022/02/25 09:21:17;;;;;;;;;;;20.70;55.30;;;;;;5035232;28;973;-68
2022/02/25 09:23:43;;;;;;;;;;;20.60;55.30;;;;;;5035027;28;838;-67
2022/02/25 09:26:08;;;;;;;;;;;20.60;55.40;;;;;;5033992;28;1021;-68
2022/02/25 09:28:34;;;;;;;;;;;20.60;55.50;;;;;;5049939;23;2071;-70
2022/02/25 09:30:59;;;;;;;;;;;20.60;55.50;;;;;;5038202;28;969;-70
2022/02/25 09:33:25;;;;;;;;;;;20.60;55.60;;;;;;5034713;28;954;-70
2022/02/25 09:35:50;;;;;;;;;;;20.60;55.60;;;;;;5051558;28;1906;-69
2022/02/25 09:38:16;;;;;;;;;;;20.60;55.70;;;;;;5036797;28;1318;-70
2022/02/25 09:40:41;;;;;;;;;;;20.60;55.70;;;;;;5054668;28;891;-70
2022/02/25 09:43:07;;;;;;;;;;;20.50;55.70;;;;;;5054572;28;827;-70
2022/02/25 09:45:32;;;;;;;;;;;20.50;55.80;;;;;;5054465;28;886;-70
2022/02/25 09:47:58;;;;;;;;;;;20.50;55.90;;;;;;5054263;28;1290;-69
2022/02/25 09:50:24;;;;;;;;;;;20.50;55.90;;;;;;5036306;28;883;-69
2022/02/25 09:52:49;;;;;;;;;;;20.50;55.90;;;;;;5036640;28;1321;-68
2022/02/25 09:55:18;;;;;;;;;;;20.50;56.00;;;;;;5036653;28;1886;-68
2022/02/25 09:57:43;;;;;;;;;;;20.40;56.00;;;;;;5054606;28;815;-68
2022/02/25 10:00:09;;;;;;;;;;;20.40;56.00;;;;;;5054334;28;1247;-68
2022/02/25 10:02:41;;;;;;;;;;;20.40;56.10;;;;;;5054627;28;871;-68
2022/02/25 10:05:07;;;;;;;;;;;20.40;56.10;;;;;;5054431;28;886;-68
2022/02/25 10:07:33;;;;;;;;;;;20.40;56.20;;;;;;5054463;28;882;-68
2022/02/25 10:09:58;;;;;;;;;;;20.40;56.20;;;;;;5036200;28;1155;-68
2022/02/25 10:12:24;;;;;;;;;;;20.30;56.20;;;;;;5054394;28;973;-68
2022/02/25 10:14:49;;;;;;;;;;;20.30;56.30;;;;;;5054145;28;922;-68
2022/02/25 10:17:25;;;;;;;;;;;20.30;56.30;;;;;;5019816;28;1954;-68
2022/02/25 10:19:51;;;;;;;;;;;20.30;56.30;;;;;;5053954;28;1189;-68
2022/02/25 10:22:16;;;;;;;;;;;20.30;56.40;;;;;;5054451;28;807;-68
2022/02/25 10:24:50;;;;;;;;;;;20.30;56.50;;;;;;5053992;28;844;-68
2022/02/25 10:27:19;;;;;;;;;;;20.20;56.40;;;;;;5053963;28;927;-68
2022/02/25 10:29:51;;;;;;;;;;;20.20;56.50;;;;;;5060927;28;1293;-68
2022/02/25 10:32:18;;;;;;;;;;;20.20;56.50;;;;;;5073899;28;1096;-68
2022/02/25 10:34:43;;;;;;;;;;;20.20;56.60;;;;;;5064828;28;1098;-68
2022/02/25 10:37:08;;;;;;;;;;;20.20;56.60;;;;;;5053842;28;1926;-68
2022/02/25 10:39:36;;;;;;;;;;;20.20;56.60;;;;;;5052309;28;1227;-68
2022/02/25 10:42:11;;;;;;;;;;;20.20;56.70;;;;;;5053660;28;839;-68
2022/02/25 10:44:36;;;;;;;;;;;20.20;56.70;;;;;;5053704;28;887;-68
2022/02/25 10:47:11;;;;;;;;;;;20.20;56.70;;;;;;5053788;28;811;-69
2022/02/25 10:49:37;;;;;;;;;;;20.10;56.70;;;;;;5053311;28;1609;-68
2022/02/25 10:52:17;;;;;;;;;;;20.10;56.80;;;;;;5052541;28;800;-69
2022/02/25 10:54:43;;;;;;;;;;;20.10;56.80;;;;;;5053617;28;863;-70
2022/02/25 10:57:14;;;;;;;;;;;20.10;56.80;;;;;;5053609;28;1894;-70
2022/02/25 10:59:43;;;;;;;;;;;20.10;56.80;;;;;;5051857;28;1193;-70
2022/02/25 11:02:41;;;;;;;;;;;20.10;56.80;;;;;;5053354;28;925;-70
2022/02/25 11:05:12;;;;;;;;;;;20.10;56.80;;;;;;5019603;28;1372;-70
2022/02/25 11:07:44;;;;;;;;;;;20.10;56.80;;;;;;5053586;28;982;-71
2022/02/25 11:10:11;;;;;;;;;;;20.10;56.80;;;;;;5044314;28;2029;-68
2022/02/25 11:12:37;;;;;;;;;;;20.10;56.90;;;;;;5051582;28;1060;-68
2022/02/25 11:15:03;;;;;;;;;;;20.10;56.90;;;;;;5051145;28;1906;-68
2022/02/25 11:17:29;;;;;;;;;;;20.10;56.90;;;;;;5055280;28;1066;-69
2022/02/25 11:19:55;;;;;;;;;;;20.10;56.90;;;;;;5071467;28;1201;-68
2022/02/25 11:22:20;;;;;;;;;;;20.00;56.90;;;;;;5059928;28;2167;-67
2022/02/25 11:24:47;;;;;;;;;;;20.00;56.90;;;;;;5039926;28;1007;-69
2022/02/25 11:27:12;;;;;;;;;;;20.00;56.90;;;;;;5046800;28;1078;-68
2022/02/25 11:29:42;;;;;;;;;;;20.10;56.90;;;;;;5057788;28;1207;-68
2022/02/25 11:32:10;;;;;;;;;;;20.00;56.90;;;;;;5069361;28;827;-68
2022/02/25 11:34:35;;;;;;;;;;;20.10;56.90;;;;;;5064897;28;1102;-67
2022/02/25 11:37:00;;;;;;;;;;;20.10;56.90;;;;;;5051719;28;1898;-67
2022/02/25 11:39:26;;;;;;;;;;;20.10;56.90;;;;;;5052415;28;1287;-67
2022/02/25 11:41:57;;;;;;;;;;;20.10;56.80;;;;;;5051584;28;1041;-67
2022/02/25 11:44:24;;;;;;;;;;;20.10;56.70;;;;;;5044257;28;1376;-68
2022/02/25 11:46:50;;;;;;;;;;;20.20;56.70;;;;;;5063797;28;1242;-67
2022/02/25 11:49:20;;;;;;;;;;;20.20;56.70;;;;;;5069442;28;1306;-67
2022/02/25 11:51:49;;;;;;;;;;;20.20;56.60;;;;;;5070820;28;854;-67
2022/02/25 11:54:18;;;;;;;;;;;20.20;56.50;;;;;;5072128;28;1117;-69
2022/02/25 11:56:43;;;;;;;;;;;20.20;56.50;;;;;;5068802;28;2168;-68
2022/02/25 11:59:09;;;;;;;;;;;20.20;56.50;;;;;;5038070;28;1355;-68
2022/02/25 12:01:34;;;;;;;;;;;20.30;56.50;;;;;;5034294;28;1292;-68
2022/02/25 12:04:06;;;;;;;;;;;20.30;56.50;;;;;;5052643;28;1217;-68
2022/02/25 12:06:51;;;;;;;;;;;20.30;56.40;;;;;;5059636;28;1166;-68
2022/02/25 12:09:16;;;;;;;;;;;20.30;56.40;;;;;;5052422;28;1283;-68
2022/02/25 12:11:42;;;;;;;;;;;20.30;56.40;;;;;;5051026;28;1239;-68
2022/02/25 12:14:07;;;;;;;;;;;20.30;56.40;;;;;;5051484;28;934;-68
2022/02/25 12:16:33;;;;;;;;;;;20.30;56.40;;;;;;5052411;28;1890;-68
2022/02/25 12:19:05;;;;;;;;;;;20.30;56.40;;;;;;5050724;28;1190;-68
2022/02/25 12:21:38;;;;;;;;;;;20.30;56.50;;;;;;5050406;28;824;-68
2022/02/25 12:24:09;;;;;;;;;;;20.30;56.40;;;;;;5050435;28;970;-68
2022/02/25 12:26:38;;;;;;;;;;;20.30;56.50;;;;;;5050614;28;1057;-68
2022/02/25 12:29:14;;;;;;;;;;;20.30;56.50;;;;;;5053163;28;1294;-68
2022/02/25 12:31:43;;;;;;;;;;;20.30;56.50;;;;;;5070422;28;898;-68
2022/02/25 12:34:09;;;;;;;;;;;20.20;56.50;;;;;;5053719;28;1190;-68
2022/02/25 12:36:39;;;;;;;;;;;20.20;56.50;;;;;;5070592;28;1949;-68
2022/02/25 12:39:13;;;;;;;;;;;20.20;56.50;;;;;;5070599;28;1222;-67
2022/02/25 12:41:41;;;;;;;;;;;20.20;56.60;;;;;;5070703;28;1088;-67
2022/02/25 12:44:07;;;;;;;;;;;20.20;56.60;;;;;;5072913;28;744;-67
2022/02/25 12:46:33;;;;;;;;;;;20.20;56.60;;;;;;5073949;28;1246;-67
2022/02/25 12:48:59;;;;;;;;;;;20.20;56.70;;;;;;5074770;28;1259;-67
2022/02/25 12:51:24;;;;;;;;;;;20.20;56.70;;;;;;5075081;28;783;-68
2022/02/25 12:54:02;;;;;;;;;;;20.20;56.70;;;;;;5073889;28;1010;-68
2022/02/25 12:56:28;;;;;;;;;;;20.20;56.70;;;;;;5074954;28;1943;-68
2022/02/25 12:58:57;;;;;;;;;;;20.10;56.70;;;;;;5073452;28;1325;-68
2022/02/25 13:01:23;;;;;;;;;;;20.10;56.80;;;;;;5075281;28;1074;-68
2022/02/25 13:03:58;;;;;;;;;;;20.10;56.80;;;;;;5073962;28;1073;-68
2022/02/25 13:06:30;;;;;;;;;;;20.10;56.80;;;;;;5057094;28;1199;-68
2022/02/25 13:08:59;;;;;;;;;;;20.10;56.80;;;;;;5074864;28;1197;-68
2022/02/25 13:11:24;;;;;;;;;;;20.10;56.90;;;;;;5075050;28;803;-68
2022/02/25 13:13:50;;;;;;;;;;;20.10;56.90;;;;;;5074844;28;775;-68
2022/02/25 13:16:16;;;;;;;;;;;20.10;56.90;;;;;;5073284;28;1894;-68
2022/02/25 13:18:42;;;;;;;;;;;20.00;56.90;;;;;;5074456;28;1189;-68
2022/02/25 13:21:07;;;;;;;;;;;20.10;57.00;;;;;;5074564;28;1029;-68
2022/02/25 13:23:33;;;;;;;;;;;20.00;56.90;;;;;;5074647;28;1008;-68
2022/02/25 13:25:59;;;;;;;;;;;20.00;57.00;;;;;;5074908;28;834;-68
2022/02/25 13:28:24;;;;;;;;;;;20.00;57.00;;;;;;5072301;28;1211;-68
2022/02/25 13:30:51;;;;;;;;;;;20.00;57.00;;;;;;5069766;28;1103;-68
2022/02/25 13:33:16;;;;;;;;;;;20.00;57.00;;;;;;5073591;28;815;-68
2022/02/25 13:35:46;;;;;;;;;;;20.00;57.10;;;;;;5057072;28;1957;-68
2022/02/25 13:38:16;;;;;;;;;;;20.00;57.10;;;;;;5054300;28;1303;-68
2022/02/25 13:40:46;;;;;;;;;;;20.00;57.10;;;;;;5052774;28;1029;-68
2022/02/25 13:43:18;;;;;;;;;;;19.90;57.10;;;;;;5052814;28;899;-68
2022/02/25 13:45:44;;;;;;;;;;;19.90;57.10;;;;;;5053148;28;823;-68
2022/02/25 13:53:42;;;;;;;;;;;19.90;57.20;;;;;;5054151;28;682;-68
2022/02/25 13:56:07;;;;;;;;;;;19.90;57.20;;;;;;5054315;28;1886;-68
2022/02/25 13:58:32;;;;;;;;;;;19.90;57.30;;;;;;5053643;28;1267;-68
2022/02/25 14:00:58;;;;;;;;;;;19.90;57.30;;;;;;5053694;28;1081;-68
2022/02/25 14:03:23;;;;;;;;;;;19.90;57.30;;;;;;5052483;28;1033;-68
2022/02/25 14:05:49;;;;;;;;;;;19.90;57.30;;;;;;5052625;28;1041;-68
2022/02/25 14:08:18;;;;;;;;;;;19.90;57.30;;;;;;5052448;28;1309;-68
2022/02/25 14:10:44;;;;;;;;;;;19.90;57.40;;;;;;5052194;28;819;-68
2022/02/25 14:13:15;;;;;;;;;;;19.90;57.40;;;;;;5052764;28;807;-68
2022/02/25 14:15:44;;;;;;;;;;;19.80;57.30;;;;;;5052730;28;1898;-68
2022/02/25 14:18:10;;;;;;;;;;;19.90;57.40;;;;;;5036068;28;1301;-68
2022/02/25 14:20:36;;;;;;;;;;;19.80;57.40;;;;;;5052298;28;1062;-68
2022/02/25 14:23:08;;;;;;;;;;;19.80;57.40;;;;;;5052270;28;989;-68
2022/02/25 14:25:34;;;;;;;;;;;19.90;57.40;;;;;;5035801;28;1220;-68
2022/02/25 14:28:14;;;;;;;;;;;19.80;57.40;;;;;;5053220;28;1188;-68
2022/02/25 14:30:43;;;;;;;;;;;19.80;57.40;;;;;;5068201;28;1194;-68
2022/02/25 14:33:09;;;;;;;;;;;19.80;57.40;;;;;;5073700;28;997;-68
2022/02/25 14:35:35;;;;;;;;;;;19.80;57.40;;;;;;5057179;28;1953;-68
2022/02/25 14:38:01;;;;;;;;;;;19.80;57.50;;;;;;5053444;28;1200;-68
2022/02/25 14:40:27;;;;;;;;;;;19.80;57.50;;;;;;5052195;28;764;-68